Time;durP1;ratioP1;P1;durP2;ratioP2;P2;SDS_P1;SDS_P2;PMS_P1;PMS_P2;Temp;Humidity;BMP_temperature;BMP_pressure;BME280_temperature;BME280_humidity;BME280_pressure;Samples;Min_cycle;Max_cycle;Signal;HPM_P1;HPM_P2
2023/07/11 00:02:14;;;;;;;8.93;5.13;;;17.60;99.90;;;;;;5044462;28;20241;-84
2023/07/11 00:04:40;;;;;;;9.55;5.25;;;17.60;99.90;;;;;;5045066;28;20680;-84
2023/07/11 00:07:06;;;;;;;9.32;5.13;;;17.50;99.90;;;;;;5045875;28;20186;-84
2023/07/11 00:09:32;;;;;;;9.45;4.90;;;17.50;99.90;;;;;;5045101;28;20194;-84
2023/07/11 00:11:57;;;;;;;8.43;5.10;;;17.40;99.90;;;;;;5044830;28;20271;-84
2023/07/11 00:14:23;;;;;;;9.40;4.85;;;17.30;99.90;;;;;;5044439;28;20228;-84
2023/07/11 00:16:52;;;;;;;9.30;5.03;;;17.40;99.90;;;;;;5044928;28;20293;-84
2023/07/11 00:19:19;;;;;;;9.27;4.82;;;17.30;99.90;;;;;;5061990;28;20278;-84
2023/07/11 00:21:46;;;;;;;11.32;5.03;;;17.30;99.90;;;;;;5043982;28;20179;-84
2023/07/11 00:24:12;;;;;;;10.73;4.80;;;17.30;99.90;;;;;;5047697;28;20244;-84
2023/07/11 00:26:38;;;;;;;11.68;6.22;;;17.30;99.90;;;;;;5047871;28;20190;-84
2023/07/11 00:29:20;;;;;;;9.82;5.45;;;17.30;99.90;;;;;;5047772;28;20198;-84
2023/07/11 00:31:46;;;;;;;9.90;5.57;;;17.30;99.90;;;;;;5045567;28;20183;-84
2023/07/11 00:34:12;;;;;;;9.18;5.35;;;17.20;99.90;;;;;;5047940;28;20182;-84
2023/07/11 00:36:37;;;;;;;10.75;5.70;;;17.20;99.90;;;;;;5048520;28;20202;-84
2023/07/11 00:39:04;;;;;;;9.95;5.75;;;17.10;99.90;;;;;;5048583;28;20201;-86
2023/07/11 00:41:31;;;;;;;8.20;5.75;;;17.10;99.90;;;;;;5050797;28;20174;-86
2023/07/11 00:43:56;;;;;;;7.93;6.05;;;17.10;99.90;;;;;;5051520;28;20238;-86
2023/07/11 00:46:22;;;;;;;10.98;5.88;;;17.00;99.90;;;;;;5050956;28;20205;-86
2023/07/11 00:48:58;;;;;;;10.63;5.68;;;17.00;99.90;;;;;;5049465;28;20201;-85
2023/07/11 00:51:37;;;;;;;9.77;5.97;;;17.00;99.90;;;;;;5069405;28;20224;-86
2023/07/11 00:54:05;;;;;;;12.75;5.68;;;17.10;99.90;;;;;;5054933;28;20236;-86
2023/07/11 00:56:36;;;;;;;8.73;6.18;;;17.00;99.90;;;;;;5054896;28;20198;-86
2023/07/11 00:59:02;;;;;;;10.55;5.70;;;17.00;99.90;;;;;;5053898;28;20261;-86
2023/07/11 01:01:28;;;;;;;9.18;5.82;;;16.90;99.90;;;;;;5072458;28;20174;-86
2023/07/11 01:03:55;;;;;;;9.48;6.20;;;16.80;99.90;;;;;;5054159;28;20250;-85
2023/07/11 01:06:24;;;;;;;9.02;5.97;;;16.80;99.90;;;;;;5050896;28;20186;-86
2023/07/11 01:08:52;;;;;;;11.13;6.50;;;16.80;99.90;;;;;;5070686;28;20200;-85
2023/07/11 01:11:19;;;;;;;10.85;6.05;;;16.70;99.90;;;;;;5049664;28;20166;-85
2023/07/11 01:13:45;;;;;;;8.95;5.50;;;16.60;99.90;;;;;;5054345;28;20186;-85
2023/07/11 01:16:11;;;;;;;13.05;6.72;;;16.60;99.90;;;;;;5050325;28;20232;-85
2023/07/11 01:18:37;;;;;;;10.63;6.00;;;16.60;99.90;;;;;;5049823;28;20194;-86
2023/07/11 01:21:08;;;;;;;9.63;6.05;;;16.60;99.90;;;;;;5049461;28;20180;-86
2023/07/11 01:23:34;;;;;;;9.73;6.10;;;16.60;99.90;;;;;;5054564;28;20184;-85
2023/07/11 01:26:07;;;;;;;9.55;5.90;;;16.60;99.90;;;;;;5054343;28;20202;-85
2023/07/11 01:28:33;;;;;;;10.80;5.72;;;16.60;99.90;;;;;;5053947;28;20206;-86
2023/07/11 01:30:59;;;;;;;13.05;5.57;;;16.60;99.90;;;;;;5049995;28;20182;-85
2023/07/11 01:33:26;;;;;;;9.32;5.20;;;16.50;99.90;;;;;;5048786;28;20189;-85
2023/07/11 01:35:53;;;;;;;10.63;5.82;;;16.40;99.90;;;;;;5052492;28;20232;-85
2023/07/11 01:38:22;;;;;;;11.73;5.93;;;16.50;99.90;;;;;;5051980;28;20198;-84
2023/07/11 01:40:48;;;;;;;10.77;5.72;;;16.60;99.90;;;;;;5052047;28;20246;-84
2023/07/11 01:43:16;;;;;;;8.85;5.82;;;16.60;99.90;;;;;;5068908;28;20170;-84
2023/07/11 01:45:42;;;;;;;8.65;6.38;;;16.50;99.90;;;;;;5051505;28;20182;-84
2023/07/11 01:48:08;;;;;;;9.45;6.40;;;16.40;99.90;;;;;;5052370;28;20204;-84
2023/07/11 01:50:34;;;;;;;9.75;6.72;;;16.40;99.90;;;;;;5048620;28;20277;-85
2023/07/11 01:53:00;;;;;;;10.38;6.97;;;16.30;99.90;;;;;;5046157;28;20204;-85
2023/07/11 01:55:25;;;;;;;10.02;6.70;;;16.30;99.90;;;;;;5046185;28;20611;-84
2023/07/11 01:57:52;;;;;;;11.18;6.40;;;16.20;99.90;;;;;;5045983;28;20202;-84
2023/07/11 02:00:18;;;;;;;8.18;5.32;;;16.20;99.90;;;;;;5045802;28;20167;-84
2023/07/11 02:02:44;;;;;;;8.65;5.85;;;16.10;99.90;;;;;;5045499;28;20259;-84
2023/07/11 02:05:10;;;;;;;9.43;5.50;;;16.00;99.90;;;;;;5046117;28;20242;-84
2023/07/11 02:07:36;;;;;;;9.45;6.05;;;16.00;99.90;;;;;;5064165;28;20171;-84
2023/07/11 02:10:02;;;;;;;13.65;6.30;;;16.00;99.90;;;;;;5064063;28;20173;-84
2023/07/11 02:12:27;;;;;;;11.68;6.07;;;16.00;99.90;;;;;;5053868;28;20186;-85
2023/07/11 02:14:53;;;;;;;11.43;6.93;;;16.00;99.90;;;;;;5040849;28;20183;-84
2023/07/11 02:17:19;;;;;;;13.68;7.00;;;16.00;99.90;;;;;;5043191;28;20261;-84
2023/07/11 02:19:45;;;;;;;10.30;6.30;;;16.00;99.90;;;;;;5061961;28;20693;-84
2023/07/11 02:22:11;;;;;;;10.55;6.38;;;16.00;99.90;;;;;;5058775;28;20175;-85
2023/07/11 02:24:40;;;;;;;11.25;6.70;;;16.00;99.90;;;;;;5040316;28;20227;-84
2023/07/11 02:27:06;;;;;;;9.98;5.70;;;16.00;99.90;;;;;;5040948;28;20198;-83
2023/07/11 02:29:33;;;;;;;13.60;6.72;;;16.00;99.90;;;;;;5058311;28;20200;-86
2023/07/11 02:32:05;;;;;;;11.63;7.65;;;15.90;99.90;;;;;;5043100;28;20210;-88
2023/07/11 02:34:31;;;;;;;12.23;7.07;;;15.90;99.90;;;;;;5042094;28;20781;-87
2023/07/11 02:36:56;;;;;;;10.85;7.47;;;16.10;99.90;;;;;;5040781;28;20293;-88
2023/07/11 02:39:22;;;;;;;9.80;6.65;;;16.10;99.90;;;;;;5038729;28;20197;-85
2023/07/11 02:41:48;;;;;;;13.95;7.25;;;16.00;99.90;;;;;;5045669;28;20523;-86
2023/07/11 02:44:14;;;;;;;13.25;7.72;;;15.90;99.90;;;;;;5020059;28;20193;-85
2023/07/11 02:46:40;;;;;;;13.68;7.95;;;15.90;99.90;;;;;;5021558;28;20193;-85
2023/07/11 02:49:08;;;;;;;13.75;7.22;;;15.70;99.90;;;;;;5039207;28;20217;-85
2023/07/11 02:51:39;;;;;;;11.82;7.90;;;15.70;99.90;;;;;;5058523;28;20155;-85
2023/07/11 02:54:06;;;;;;;13.57;7.75;;;15.70;99.90;;;;;;5039761;28;20190;-86
2023/07/11 02:56:32;;;;;;;15.07;7.75;;;15.70;99.90;;;;;;5030826;28;20210;-86
2023/07/11 02:59:00;;;;;;;8.63;7.55;;;15.70;99.90;;;;;;5057232;28;20264;-86
2023/07/11 03:01:29;;;;;;;9.75;5.88;;;15.70;99.90;;;;;;5039640;28;20186;-85
2023/07/11 03:03:55;;;;;;;11.23;6.10;;;15.60;99.90;;;;;;5057265;28;20170;-86
2023/07/11 03:06:21;;;;;;;7.57;5.82;;;15.60;99.90;;;;;;5039753;28;20228;-86
2023/07/11 03:08:46;;;;;;;8.30;5.80;;;15.60;99.90;;;;;;5039967;28;20206;-84
2023/07/11 03:11:12;;;;;;;10.90;6.40;;;15.60;99.90;;;;;;5057700;28;20213;-83
2023/07/11 03:13:38;;;;;;;17.20;8.15;;;15.50;99.90;;;;;;5039912;28;20705;-84
2023/07/11 03:16:04;;;;;;;15.63;8.25;;;15.50;99.90;;;;;;5057447;28;20203;-84
2023/07/11 03:18:30;;;;;;;11.43;7.90;;;15.50;99.90;;;;;;5057894;28;20613;-83
2023/07/11 03:21:00;;;;;;;15.40;8.30;;;15.50;99.90;;;;;;5058148;28;20190;-84
2023/07/11 03:23:28;;;;;;;10.82;7.45;;;15.50;99.90;;;;;;5039563;28;20175;-84
2023/07/11 03:25:53;;;;;;;12.85;7.57;;;15.50;99.90;;;;;;5039788;28;20194;-85
2023/07/11 03:28:19;;;;;;;12.65;7.90;;;15.50;99.90;;;;;;5055454;28;20564;-85
2023/07/11 03:30:46;;;;;;;12.70;7.70;;;15.50;99.90;;;;;;5039446;28;20715;-84
2023/07/11 03:33:11;;;;;;;16.88;7.82;;;15.40;99.90;;;;;;5040186;28;20235;-83
2023/07/11 03:35:37;;;;;;;9.57;7.47;;;15.40;99.90;;;;;;5038862;28;20214;-83
2023/07/11 03:38:03;;;;;;;13.52;8.20;;;15.40;99.90;;;;;;5056923;28;20194;-84
2023/07/11 03:40:29;;;;;;;12.55;7.07;;;15.40;99.90;;;;;;5056614;28;20174;-84
2023/07/11 03:42:55;;;;;;;14.82;7.72;;;15.40;99.90;;;;;;5057659;28;20163;-85
2023/07/11 03:45:21;;;;;;;17.60;7.82;;;15.40;99.90;;;;;;5041109;28;20185;-85
2023/07/11 03:47:47;;;;;;;11.18;6.93;;;15.50;99.90;;;;;;5039369;28;20213;-83
2023/07/11 03:50:13;;;;;;;10.57;6.47;;;15.50;99.90;;;;;;5041207;28;20182;-85
2023/07/11 03:52:39;;;;;;;17.40;7.32;;;15.50;99.90;;;;;;5040196;28;20178;-84
2023/07/11 03:55:06;;;;;;;13.57;6.95;;;15.50;99.90;;;;;;5038782;28;20569;-84
2023/07/11 03:57:31;;;;;;;14.73;6.30;;;15.40;99.90;;;;;;5058286;28;20194;-84
2023/07/11 03:59:57;;;;;;;11.50;6.05;;;15.50;99.90;;;;;;5041578;28;20222;-84
2023/07/11 04:02:23;;;;;;;14.30;6.38;;;15.50;99.90;;;;;;5040613;28;20174;-85
2023/07/11 04:04:49;;;;;;;9.52;6.20;;;15.50;99.90;;;;;;5057996;28;20175;-84
2023/07/11 04:07:14;;;;;;;12.60;6.78;;;15.50;99.90;;;;;;5058869;28;20178;-85
2023/07/11 04:09:41;;;;;;;13.23;6.65;;;15.50;99.90;;;;;;5039783;28;20195;-83
2023/07/11 04:12:07;;;;;;;11.30;6.30;;;15.50;99.90;;;;;;5040108;28;20189;-83
2023/07/11 04:14:33;;;;;;;13.15;6.50;;;15.40;99.90;;;;;;5058307;28;20642;-83
2023/07/11 04:16:59;;;;;;;16.63;6.45;;;15.40;99.90;;;;;;5040016;28;20206;-83
2023/07/11 04:19:25;;;;;;;9.88;6.38;;;15.40;99.90;;;;;;5058671;28;20197;-84
2023/07/11 04:21:50;;;;;;;9.23;5.68;;;15.40;99.90;;;;;;5059241;28;20174;-84
2023/07/11 04:24:16;;;;;;;8.57;6.53;;;15.40;99.90;;;;;;5041504;28;20647;-84
2023/07/11 04:26:42;;;;;;;11.13;6.35;;;15.40;99.90;;;;;;5059216;28;20190;-84
2023/07/11 04:29:07;;;;;;;8.30;6.50;;;15.40;99.90;;;;;;5058917;28;20257;-84
2023/07/11 04:31:34;;;;;;;10.80;6.45;;;15.40;99.90;;;;;;5057716;28;20182;-84
2023/07/11 04:34:00;;;;;;;11.63;7.00;;;15.40;99.90;;;;;;5038913;28;20163;-84
2023/07/11 04:36:27;;;;;;;9.43;6.32;;;15.50;99.90;;;;;;5038630;28;20205;-85
2023/07/11 04:38:53;;;;;;;12.00;6.22;;;15.60;99.90;;;;;;5038573;28;20194;-84
2023/07/11 04:41:19;;;;;;;9.05;6.18;;;15.70;99.90;;;;;;5038791;28;20197;-84
2023/07/11 04:43:45;;;;;;;12.15;6.47;;;15.80;99.90;;;;;;5038497;28;20200;-84
2023/07/11 04:46:11;;;;;;;12.80;6.45;;;15.90;99.90;;;;;;5038921;28;20181;-84
2023/07/11 04:48:37;;;;;;;14.18;6.60;;;16.00;99.90;;;;;;5038711;28;20297;-84
2023/07/11 04:51:05;;;;;;;19.27;6.20;;;16.10;99.90;;;;;;5038802;28;20610;-84
2023/07/11 04:53:32;;;;;;;11.93;5.85;;;16.10;99.90;;;;;;5038580;28;20209;-84
2023/07/11 04:55:59;;;;;;;10.82;5.65;;;16.30;99.90;;;;;;5056182;28;20230;-84
2023/07/11 04:58:28;;;;;;;10.93;6.78;;;16.40;99.90;;;;;;5056402;28;20202;-85
2023/07/11 05:01:02;;;;;;;12.02;5.78;;;16.50;99.90;;;;;;5057351;28;20178;-85
2023/07/11 05:03:28;;;;;;;10.63;5.25;;;16.60;99.90;;;;;;5056710;28;20503;-85
2023/07/11 05:05:55;;;;;;;7.10;5.28;;;16.70;99.90;;;;;;5056336;28;20182;-84
2023/07/11 05:08:21;;;;;;;8.65;4.68;;;16.80;99.90;;;;;;5038665;28;20568;-84
2023/07/11 05:10:58;;;;;;;10.35;5.15;;;17.00;99.90;;;;;;5056071;28;20174;-84
2023/07/11 05:13:24;;;;;;;10.43;4.90;;;17.10;99.90;;;;;;5057952;28;20174;-84
2023/07/11 05:15:50;;;;;;;9.20;4.85;;;17.20;99.90;;;;;;5040826;28;20283;-84
2023/07/11 05:18:18;;;;;;;9.95;5.63;;;17.30;99.90;;;;;;5041056;28;20202;-84
2023/07/11 05:20:44;;;;;;;8.05;5.18;;;17.40;99.90;;;;;;5055681;28;20177;-84
2023/07/11 05:23:10;;;;;;;9.65;4.75;;;17.50;99.90;;;;;;5056996;28;20261;-84
2023/07/11 05:25:38;;;;;;;8.65;4.38;;;17.70;99.90;;;;;;5055753;28;20190;-84
2023/07/11 05:28:05;;;;;;;11.82;4.85;;;17.80;99.90;;;;;;5055612;28;20273;-84
2023/07/11 05:30:30;;;;;;;6.75;4.50;;;17.90;99.90;;;;;;5038046;28;20595;-84
2023/07/11 05:32:56;;;;;;;7.13;4.45;;;18.00;99.90;;;;;;5056992;28;20201;-84
2023/07/11 05:35:22;;;;;;;7.28;4.68;;;18.20;99.90;;;;;;5038430;28;20182;-84
2023/07/11 05:37:48;;;;;;;7.05;4.40;;;18.30;99.90;;;;;;5037915;28;20187;-84
2023/07/11 05:40:13;;;;;;;9.10;4.40;;;18.40;99.90;;;;;;5055744;28;20166;-84
2023/07/11 05:42:39;;;;;;;9.75;4.93;;;18.50;99.90;;;;;;5037821;28;20545;-84
2023/07/11 05:45:05;;;;;;;7.05;4.00;;;18.60;99.90;;;;;;5037569;28;20204;-84
2023/07/11 05:47:31;;;;;;;8.25;4.60;;;18.70;99.90;;;;;;5056131;28;20532;-84
2023/07/11 05:49:57;;;;;;;6.00;3.90;;;18.80;99.90;;;;;;5038225;28;20206;-84
2023/07/11 05:52:22;;;;;;;6.25;4.43;;;18.90;99.90;;;;;;5040809;28;20272;-84
2023/07/11 05:54:48;;;;;;;6.32;4.00;;;19.00;99.90;;;;;;5059265;28;20170;-84
2023/07/11 05:57:14;;;;;;;7.15;4.60;;;19.10;99.90;;;;;;5059749;28;20287;-84
2023/07/11 05:59:40;;;;;;;7.38;3.75;;;19.20;99.90;;;;;;5058965;28;20198;-84
2023/07/11 06:02:07;;;;;;;7.93;4.55;;;19.30;99.90;;;;;;5041850;28;20179;-84
2023/07/11 06:04:33;;;;;;;9.77;4.32;;;19.40;99.90;;;;;;5059173;28;20170;-84
2023/07/11 06:06:59;;;;;;;6.05;4.20;;;19.50;99.90;;;;;;5059547;28;20702;-84
2023/07/11 06:09:25;;;;;;;9.85;4.30;;;19.70;99.90;;;;;;5041122;28;20202;-84
2023/07/11 06:11:51;;;;;;;5.28;3.75;;;19.80;99.90;;;;;;5041617;28;20198;-84
2023/07/11 06:14:18;;;;;;;5.93;4.00;;;19.90;99.90;;;;;;5059108;28;20178;-84
2023/07/11 06:16:44;;;;;;;7.13;3.97;;;20.20;99.90;;;;;;5058879;28;20279;-84
2023/07/11 06:19:10;;;;;;;5.95;3.60;;;20.40;99.90;;;;;;5041094;28;20206;-84
2023/07/11 06:21:36;;;;;;;7.97;4.22;;;20.70;99.90;;;;;;5059385;28;20174;-84
2023/07/11 06:24:02;;;;;;;8.88;4.00;;;20.90;93.90;;;;;;5041122;28;20553;-84
2023/07/11 06:26:27;;;;;;;8.18;4.20;;;21.00;47.30;;;;;;5058987;28;20244;-84
2023/07/11 06:28:54;;;;;;;6.57;3.97;;;21.20;94.80;;;;;;5059305;28;20204;-84
2023/07/11 06:31:20;;;;;;;5.82;3.70;;;21.30;92.30;;;;;;5040623;28;20208;-84
2023/07/11 06:33:46;;;;;;;7.47;3.75;;;21.40;99.90;;;;;;5058484;28;20241;-84
2023/07/11 06:36:12;;;;;;;6.20;3.25;;;21.60;4.60;;;;;;5041082;28;20225;-84
2023/07/11 06:38:37;;;;;;;5.25;3.42;;;21.70;40.40;;;;;;5041584;28;20209;-84
2023/07/11 06:41:03;;;;;;;6.93;3.63;;;21.80;1.00;;;;;;5057726;28;20530;-84
2023/07/11 06:43:29;;;;;;;4.57;3.13;;;22.00;13.90;;;;;;5040431;28;20174;-84
2023/07/11 06:45:57;;;;;;;5.45;3.33;;;22.10;32.60;;;;;;5040327;28;20324;-84
2023/07/11 06:48:25;;;;;;;6.95;3.58;;;22.10;1.00;;;;;;5040593;28;20203;-84
2023/07/11 06:50:56;;;;;;;5.72;3.50;;;22.20;1.00;;;;;;5040174;28;20184;-84
2023/07/11 06:53:24;;;;;;;8.32;3.85;;;22.30;1.00;;;;;;5040344;28;20166;-84
2023/07/11 06:55:51;;;;;;;6.43;3.67;;;22.40;1.00;;;;;;5040366;28;20666;-84
2023/07/11 06:58:18;;;;;;;6.90;3.95;;;22.50;1.00;;;;;;5058449;28;20194;-84
2023/07/11 07:00:50;;;;;;;8.10;3.70;;;22.60;1.00;;;;;;5058309;28;20725;-85
2023/07/11 07:03:16;;;;;;;7.95;3.83;;;22.70;1.00;;;;;;5058196;28;20159;-85
2023/07/11 07:05:49;;;;;;;5.82;3.53;;;22.80;1.00;;;;;;5041033;28;20182;-85
2023/07/11 07:08:15;;;;;;;5.72;3.20;;;22.80;9.00;;;;;;5058176;28;20273;-85
2023/07/11 07:10:41;;;;;;;6.78;3.70;;;23.00;1.00;;;;;;5058163;28;20558;-85
2023/07/11 07:13:06;;;;;;;8.80;3.80;;;23.00;1.00;;;;;;5039918;28;20186;-84
2023/07/11 07:15:32;;;;;;;5.47;3.28;;;23.10;1.00;;;;;;5058281;28;20175;-84
2023/07/11 07:17:58;;;;;;;4.38;3.42;;;23.10;1.00;;;;;;5039814;28;20257;-84
2023/07/11 07:20:23;;;;;;;7.90;3.65;;;23.20;1.00;;;;;;5057825;28;20200;-84
2023/07/11 07:22:49;;;;;;;5.38;3.55;;;23.30;1.00;;;;;;5057934;28;20174;-84
2023/07/11 07:25:15;;;;;;;6.05;3.53;;;23.40;1.00;;;;;;5058120;28;20172;-84
2023/07/11 07:27:40;;;;;;;5.78;3.70;;;23.50;1.00;;;;;;5040005;28;20182;-84
2023/07/11 07:30:08;;;;;;;6.28;3.80;;;23.50;1.00;;;;;;5039327;28;20674;-84
2023/07/11 07:32:35;;;;;;;5.47;3.20;;;23.60;1.00;;;;;;5057385;28;20209;-84
2023/07/11 07:35:00;;;;;;;5.60;3.45;;;23.90;1.00;;;;;;5057657;28;20638;-84
2023/07/11 07:37:26;;;;;;;5.80;3.50;;;24.00;1.00;;;;;;5057486;28;20294;-84
2023/07/11 07:39:52;;;;;;;8.35;3.90;;;24.20;1.00;;;;;;5057460;28;20194;-84
2023/07/11 07:42:17;;;;;;;6.20;3.20;;;24.30;1.00;;;;;;5039863;28;20186;-84
2023/07/11 07:44:43;;;;;;;4.00;2.72;;;24.50;99.90;;;;;;5057862;28;20170;-84
2023/07/11 07:47:09;;;;;;;3.88;3.08;;;24.60;1.00;;;;;;5058322;28;20171;-84
2023/07/11 07:49:34;;;;;;;5.63;3.13;;;24.60;21.40;;;;;;5039654;28;20277;-84
2023/07/11 07:52:00;;;;;;;3.53;2.78;;;24.80;99.90;;;;;;5057490;28;20320;-84
2023/07/11 07:54:26;;;;;;;6.93;3.03;;;24.90;1.00;;;;;;5038946;28;20178;-84
2023/07/11 07:56:53;;;;;;;5.80;3.10;;;24.90;1.00;;;;;;5056802;28;20620;-84
2023/07/11 07:59:19;;;;;;;4.90;3.45;;;25.00;99.90;;;;;;5059314;28;20190;-84
2023/07/11 08:01:45;;;;;;;4.32;3.15;;;25.00;99.90;;;;;;5060758;28;20257;-84
2023/07/11 08:04:12;;;;;;;5.75;3.42;;;25.10;99.90;;;;;;5048078;28;20206;-84
2023/07/11 08:06:38;;;;;;;5.18;3.97;;;25.10;99.90;;;;;;5047289;28;20175;-84
2023/07/11 08:09:03;;;;;;;4.57;3.00;;;25.10;94.00;;;;;;5043366;28;20205;-84
2023/07/11 08:11:29;;;;;;;4.43;3.05;;;25.20;99.90;;;;;;5040958;28;20186;-84
2023/07/11 08:13:55;;;;;;;5.22;3.15;;;25.30;1.00;;;;;;5056855;28;20220;-84
2023/07/11 08:16:20;;;;;;;5.45;3.40;;;25.30;99.90;;;;;;5039500;28;20202;-84
2023/07/11 08:18:46;;;;;;;4.15;3.20;;;25.40;1.00;;;;;;5038994;28;20691;-84
2023/07/11 08:21:12;;;;;;;4.40;3.42;;;25.40;1.00;;;;;;5057541;28;20224;-84
2023/07/11 08:23:38;;;;;;;6.20;3.10;;;25.50;1.00;;;;;;5039724;28;20174;-84
2023/07/11 08:26:03;;;;;;;5.75;2.92;;;25.50;1.00;;;;;;5057129;28;20198;-84
2023/07/11 08:28:29;;;;;;;5.00;3.20;;;25.60;5.30;;;;;;5039469;28;20245;-84
2023/07/11 08:30:55;;;;;;;4.15;3.00;;;25.70;1.00;;;;;;5057737;28;20178;-84
2023/07/11 08:33:20;;;;;;;9.05;3.13;;;25.70;99.90;;;;;;5039280;28;20178;-84
2023/07/11 08:35:46;;;;;;;7.13;3.30;;;25.80;99.90;;;;;;5039597;28;20205;-84
2023/07/11 08:38:12;;;;;;;8.18;3.28;;;26.00;14.50;;;;;;5057100;28;20186;-84
2023/07/11 08:40:43;;;;;;;6.53;2.80;;;26.00;37.10;;;;;;5056649;28;20181;-85
2023/07/11 08:43:28;;;;;;;5.45;2.95;;;26.10;1.00;;;;;;5056818;28;20175;-84
2023/07/11 08:46:07;;;;;;;5.88;3.35;;;26.20;1.00;;;;;;5039521;28;20178;-83
2023/07/11 08:48:41;;;;;;;11.05;3.00;;;26.10;1.00;;;;;;5039522;28;20217;-84
2023/07/11 08:51:17;;;;;;;6.10;3.05;;;26.20;1.00;;;;;;5056713;28;20499;-84
2023/07/11 08:53:49;;;;;;;4.78;2.97;;;26.20;1.00;;;;;;5039074;28;20189;-84
2023/07/11 08:56:21;;;;;;;8.55;2.80;;;26.30;99.90;;;;;;5056824;28;20188;-84
2023/07/11 08:58:49;;;;;;;6.00;2.80;;;26.40;1.00;;;;;;5056333;28;20622;-84
2023/07/11 09:01:44;;;;;;;5.55;3.25;;;26.40;99.90;;;;;;5038328;28;20186;-84
2023/07/11 09:04:14;;;;;;;6.32;3.50;;;26.50;99.90;;;;;;5038912;28;20539;-84
2023/07/11 09:07:00;;;;;;;7.00;3.05;;;26.70;1.00;;;;;;5056777;28;20659;-84
2023/07/11 09:09:26;;;;;;;7.53;3.05;;;26.80;95.80;;;;;;5056195;28;20198;-84
2023/07/11 09:12:03;;;;;;;5.57;2.92;;;26.80;99.90;;;;;;5038470;28;20204;-84
2023/07/11 09:14:55;;;;;;;8.38;2.97;;;26.90;1.00;;;;;;5038484;28;20593;-84
2023/07/11 09:17:35;;;;;;;8.18;3.72;;;27.10;1.00;;;;;;5056273;28;20553;-84
2023/07/11 09:20:24;;;;;;;6.75;3.17;;;27.10;1.00;;;;;;5037975;28;20195;-84
2023/07/11 09:23:09;;;;;;;6.80;2.63;;;27.20;7.50;;;;;;5056450;28;20599;-84
2023/07/11 09:25:44;;;;;;;9.30;2.88;;;27.20;99.90;;;;;;5036770;28;20191;-84
2023/07/11 09:28:22;;;;;;;6.55;2.95;;;27.30;1.00;;;;;;5037501;28;20736;-84
2023/07/11 09:30:57;;;;;;;8.55;2.60;;;27.50;1.00;;;;;;5057976;28;20135;-84
2023/07/11 09:33:32;;;;;;;6.15;2.70;;;27.60;1.00;;;;;;5055402;28;20170;-84
2023/07/11 09:35:59;;;;;;;4.43;2.65;;;27.70;1.00;;;;;;5037445;28;20198;-84
2023/07/11 09:38:35;;;;;;;5.53;2.50;;;28.00;1.00;;;;;;5037638;28;20289;-84
2023/07/11 09:41:08;;;;;;;6.22;3.10;;;28.00;99.90;;;;;;5037297;28;20158;-84
2023/07/11 09:43:34;;;;;;;3.85;2.75;;;28.00;1.00;;;;;;5055484;28;20155;-84
2023/07/11 09:46:00;;;;;;;3.42;2.33;;;28.00;99.90;;;;;;5037187;28;20179;-84
2023/07/11 09:48:34;;;;;;;5.30;2.90;;;28.20;1.00;;;;;;5037964;28;20256;-84
2023/07/11 09:51:19;;;;;;;4.30;2.53;;;28.30;99.90;;;;;;5056387;28;20163;-84
2023/07/11 09:53:46;;;;;;;5.78;2.80;;;28.20;1.00;;;;;;5056111;28;20582;-83
2023/07/11 09:56:15;;;;;;;9.50;3.20;;;28.20;1.00;;;;;;5056908;28;20214;-83
2023/07/11 09:58:47;;;;;;;6.40;2.78;;;28.30;1.00;;;;;;5038617;28;20205;-83
2023/07/11 10:01:27;;;;;;;7.47;3.22;;;28.40;1.00;;;;;;5058760;28;20155;-84
2023/07/11 10:03:58;;;;;;;6.35;2.85;;;28.20;1.00;;;;;;5056532;28;20193;-83
2023/07/11 10:06:52;;;;;;;4.93;2.78;;;28.00;1.00;;;;;;5038759;28;20183;-83
2023/07/11 10:09:24;;;;;;;6.68;2.83;;;27.90;99.90;;;;;;5056864;28;20198;-83
2023/07/11 10:11:54;;;;;;;6.45;2.97;;;27.80;8.10;;;;;;5055175;28;20619;-83
2023/07/11 10:14:24;;;;;;;7.90;2.85;;;27.80;1.00;;;;;;5055588;28;20228;-83
2023/07/11 10:16:49;;;;;;;5.90;2.83;;;28.00;1.00;;;;;;5037485;28;20683;-83
2023/07/11 10:19:17;;;;;;;8.45;3.20;;;28.30;1.00;;;;;;5038404;28;20245;-83
2023/07/11 10:21:51;;;;;;;4.90;2.78;;;28.40;1.00;;;;;;5056078;28;20178;-83
2023/07/11 10:24:22;;;;;;;9.45;3.42;;;28.50;99.90;;;;;;5055356;28;20669;-83
2023/07/11 10:26:54;;;;;;;3.92;2.83;;;28.50;99.90;;;;;;5057807;28;20685;-83
2023/07/11 10:29:23;;;;;;;6.28;2.95;;;28.10;1.00;;;;;;5037950;28;20289;-83
2023/07/11 10:31:52;;;;;;;5.68;2.92;;;28.00;1.00;;;;;;5056777;28;20220;-83
2023/07/11 10:34:49;;;;;;;9.32;2.97;;;27.80;1.00;;;;;;5055343;28;20177;-83
2023/07/11 10:37:32;;;;;;;5.35;2.78;;;28.00;1.00;;;;;;5038116;28;20732;-83
2023/07/11 10:40:09;;;;;;;6.15;2.88;;;28.30;1.00;;;;;;5041854;28;20202;-83
2023/07/11 10:42:45;;;;;;;4.35;2.97;;;28.50;1.00;;;;;;5041966;28;20162;-84
2023/07/11 10:45:18;;;;;;;4.78;2.80;;;28.70;1.00;;;;;;5060077;28;20182;-83
2023/07/11 10:47:57;;;;;;;4.82;2.75;;;28.50;1.00;;;;;;5040984;28;20182;-83
2023/07/11 10:51:07;;;;;;;6.38;3.10;;;28.50;1.00;;;;;;5041120;28;20173;-83
2023/07/11 10:53:50;;;;;;;6.35;3.10;;;28.40;1.00;;;;;;4977578;28;20196;-83
2023/07/11 10:56:21;;;;;;;7.30;3.20;;;28.40;1.00;;;;;;5035152;28;20210;-82
2023/07/11 10:58:48;;;;;;;6.15;2.85;;;28.40;1.00;;;;;;5039810;28;20248;-82
2023/07/11 11:01:23;;;;;;;7.07;2.85;;;28.70;1.00;;;;;;5057957;28;20543;-82
2023/07/11 11:03:57;;;;;;;7.65;3.53;;;28.70;1.00;;;;;;5057887;28;20166;-82
2023/07/11 11:06:28;;;;;;;5.80;2.90;;;28.70;1.00;;;;;;5057954;28;20159;-82
2023/07/11 11:08:58;;;;;;;6.63;3.05;;;28.80;1.00;;;;;;5058198;28;20281;-82
2023/07/11 11:11:41;;;;;;;7.68;3.00;;;29.00;1.00;;;;;;5057869;28;20178;-82
2023/07/11 11:14:34;;;;;;;5.53;2.85;;;28.90;1.00;;;;;;5058378;28;20154;-82
2023/07/11 11:17:22;;;;;;;5.50;3.38;;;28.90;1.00;;;;;;5057969;28;20646;-82
2023/07/11 11:19:57;;;;;;;8.00;3.33;;;28.90;1.00;;;;;;5058027;28;20206;-82
2023/07/11 11:23:07;;;;;;;10.88;4.20;;;29.00;1.00;;;;;;5040209;28;20166;-82
2023/07/11 11:25:46;;;;;;;6.70;3.15;;;29.20;1.00;;;;;;5009490;28;20198;-82
2023/07/11 11:28:52;;;;;;;7.90;3.00;;;29.20;1.00;;;;;;5040078;28;20201;-83
2023/07/11 11:31:18;;;;;;;6.07;3.20;;;29.30;1.00;;;;;;5039383;28;20220;-82
2023/07/11 11:33:52;;;;;;;5.28;3.05;;;29.30;1.00;;;;;;5057427;28;20240;-82
2023/07/11 11:36:30;;;;;;;6.55;3.30;;;29.50;1.00;;;;;;5057369;28;20186;-82
2023/07/11 11:39:23;;;;;;;6.20;3.40;;;29.70;1.00;;;;;;5057703;28;20217;-83
2023/07/11 11:41:56;;;;;;;8.27;3.53;;;29.70;1.00;;;;;;5059472;28;20159;-82
2023/07/11 11:44:35;;;;;;;6.57;3.58;;;29.80;1.00;;;;;;5042664;28;20175;-83
2023/07/11 11:47:01;;;;;;;7.35;3.53;;;29.80;1.00;;;;;;5043804;28;20178;-83
2023/07/11 11:49:27;;;;;;;6.47;3.40;;;29.80;1.00;;;;;;5062421;28;20194;-83
2023/07/11 11:51:54;;;;;;;6.60;3.47;;;29.80;11.90;;;;;;5061170;28;20203;-83
2023/07/11 11:54:23;;;;;;;8.13;3.38;;;29.80;10.00;;;;;;5059686;28;20178;-83
2023/07/11 11:56:58;;;;;;;8.00;3.88;;;29.90;7.60;;;;;;5040701;28;20205;-83
2023/07/11 11:59:26;;;;;;;7.07;3.40;;;30.10;7.00;;;;;;5040855;28;20274;-83
2023/07/11 12:01:57;;;;;;;6.57;3.78;;;30.10;17.60;;;;;;5058537;28;20179;-83
2023/07/11 12:04:34;;;;;;;7.93;3.63;;;30.20;25.70;;;;;;5058431;28;20170;-83
2023/07/11 12:07:10;;;;;;;5.75;3.88;;;30.10;56.00;;;;;;5039280;28;20171;-82
2023/07/11 12:09:44;;;;;;;6.72;3.63;;;30.20;55.90;;;;;;5057149;28;20189;-83
2023/07/11 12:12:13;;;;;;;8.82;4.05;;;30.20;53.20;;;;;;5039147;28;20170;-83
2023/07/11 12:14:56;;;;;;;6.18;3.70;;;30.30;57.00;;;;;;5038802;28;20229;-83
2023/07/11 12:17:31;;;;;;;7.35;3.70;;;30.50;58.60;;;;;;5038964;28;20740;-82
2023/07/11 12:20:02;;;;;;;7.00;3.92;;;30.60;56.30;;;;;;5057125;28;20278;-83
2023/07/11 12:22:38;;;;;;;6.80;3.97;;;30.60;77.80;;;;;;5057145;28;20163;-83
2023/07/11 12:25:07;;;;;;;7.57;3.42;;;30.50;83.00;;;;;;5039433;28;20163;-82
2023/07/11 12:27:32;;;;;;;8.32;3.95;;;30.60;80.10;;;;;;5039217;28;20202;-82
2023/07/11 12:30:03;;;;;;;7.15;4.43;;;30.50;70.60;;;;;;5039142;28;20198;-82
2023/07/11 12:32:31;;;;;;;6.43;3.63;;;30.60;61.70;;;;;;5057229;28;20195;-83
2023/07/11 12:35:04;;;;;;;6.15;3.85;;;30.60;58.50;;;;;;5056782;28;20264;-82
2023/07/11 12:37:48;;;;;;;9.88;3.65;;;30.60;77.60;;;;;;5056701;28;20221;-82
2023/07/11 12:40:52;;;;;;;10.15;4.15;;;30.90;73.70;;;;;;5039028;28;20216;-83
2023/07/11 12:43:30;;;;;;;6.10;4.00;;;31.00;64.70;;;;;;5056146;28;20521;-83
2023/07/11 12:45:59;;;;;;;7.68;3.92;;;31.20;61.10;;;;;;5057323;28;20173;-83
2023/07/11 12:48:47;;;;;;;9.27;4.07;;;31.10;56.80;;;;;;5038703;28;20202;-82
2023/07/11 12:51:26;;;;;;;8.95;4.05;;;31.00;58.30;;;;;;5038555;28;20167;-82
2023/07/11 12:54:08;;;;;;;6.55;4.57;;;31.10;65.20;;;;;;5038962;28;20228;-83
2023/07/11 12:56:34;;;;;;;7.85;4.20;;;31.40;86.30;;;;;;5056029;28;20190;-82
2023/07/11 12:59:00;;;;;;;6.85;4.63;;;31.30;79.60;;;;;;5038935;28;20190;-83
2023/07/11 13:01:26;;;;;;;8.48;4.50;;;31.50;78.40;;;;;;5038426;28;20232;-83